Time;durP1;ratioP1;P1;durP2;ratioP2;P2;SDS_P1;SDS_P2;PMS_P1;PMS_P2;Temp;Humidity;BMP_temperature;BMP_pressure;BME280_temperature;BME280_humidity;BME280_pressure;Samples;Min_cycle;Max_cycle;Signal;HPM_P1;HPM_P2
2023/02/14 00:03:53;;;;;;;64.90;34.30;;;;;;;2.95;100.00;100805.41;270831;1266;22572;-91
2023/02/14 00:09:55;;;;;;;70.40;36.10;;;;;;;2.93;100.00;100802.43;270164;1267;22336;-90
2023/02/14 00:16:04;;;;;;;62.20;32.80;;;;;;;2.91;100.00;100795.86;272410;1267;25385;-90
2023/02/14 00:22:06;;;;;;;59.00;31.20;;;;;;;2.87;100.00;100795.88;271395;1267;22449;-90
2023/02/14 00:28:10;;;;;;;55.00;29.20;;;;;;;2.83;100.00;100791.74;273788;1269;22230;-90
2023/02/14 00:34:14;;;;;;;65.80;33.30;;;;;;;2.80;100.00;100791.23;271723;1269;22576;-90
2023/02/14 00:40:16;;;;;;;61.80;32.00;;;;;;;2.79;100.00;100793.07;269761;1267;25503;-90
2023/02/14 00:46:20;;;;;;;63.30;31.00;;;;;;;2.76;100.00;100790.98;269679;1269;22560;-89
2023/02/14 00:52:21;;;;;;;62.90;30.70;;;;;;;2.75;100.00;100797.80;269858;1269;22560;-90
2023/02/14 00:58:23;;;;;;;60.60;30.80;;;;;;;2.72;100.00;100792.09;271892;1256;22433;-90
2023/02/14 01:04:25;;;;;;;51.70;26.60;;;;;;;2.70;100.00;100789.45;273512;1267;22218;-91
2023/02/14 01:10:27;;;;;;;55.20;27.40;;;;;;;2.68;100.00;100788.15;272454;1266;23271;-90
2023/02/14 01:16:32;;;;;;;61.30;30.60;;;;;;;2.66;100.00;100787.73;269261;1267;22619;-90
2023/02/14 01:22:37;;;;;;;53.20;28.60;;;;;;;2.66;100.00;100782.81;270846;1267;23061;-91
2023/02/14 01:28:39;;;;;;;58.60;29.70;;;;;;;2.64;100.00;100780.02;273665;1267;22338;-91
2023/02/14 01:34:43;;;;;;;58.80;27.00;;;;;;;2.63;100.00;100776.62;271003;1269;24253;-90
2023/02/14 01:40:45;;;;;;;60.00;29.20;;;;;;;2.62;100.00;100782.58;270706;1267;22814;-90
2023/02/14 01:46:47;;;;;;;57.50;28.80;;;;;;;2.62;100.00;100778.95;273667;1267;22371;-90
2023/02/14 01:52:55;;;;;;;60.40;30.30;;;;;;;2.62;100.00;100778.36;273746;1267;22333;-90
2023/02/14 01:58:59;;;;;;;55.10;28.70;;;;;;;2.61;100.00;100773.02;269795;1267;23862;-90
2023/02/14 02:05:01;;;;;;;62.10;30.80;;;;;;;2.59;100.00;100770.92;270464;1267;22228;-89
2023/02/14 02:11:03;;;;;;;63.70;30.90;;;;;;;2.58;100.00;100773.67;272942;1268;22318;-90
2023/02/14 02:17:11;;;;;;;64.20;32.50;;;;;;;2.57;100.00;100769.29;273801;1263;22397;-90
2023/02/14 02:23:50;;;;;;;59.10;30.60;;;;;;;2.57;100.00;100765.48;273812;1269;22323;-90
2023/02/14 02:30:22;;;;;;;59.70;31.40;;;;;;;2.54;100.00;100767.86;272084;1257;22560;-90
2023/02/14 02:36:33;;;;;;;60.90;32.40;;;;;;;2.53;100.00;100771.11;269597;1269;24899;-90
2023/02/14 02:43:06;;;;;;;59.10;31.40;;;;;;;2.51;100.00;100775.28;270369;1269;22218;-90
2023/02/14 03:02:31;;;;;;;65.20;35.00;;;;;;;2.44;100.00;100767.38;273586;1269;23815;-90
2023/02/14 03:08:34;;;;;;;70.40;37.20;;;;;;;2.45;100.00;100767.70;272917;1269;22349;-91
2023/02/14 03:14:52;;;;;;;71.70;38.10;;;;;;;2.46;100.00;100764.62;271714;1267;22340;-90
2023/02/14 03:21:03;;;;;;;77.70;38.70;;;;;;;2.46;100.00;100768.13;271785;1267;22432;-90
2023/02/14 03:27:11;;;;;;;76.20;41.00;;;;;;;2.45;100.00;100771.60;273558;1267;22396;-91
2023/02/14 03:33:20;;;;;;;78.90;39.50;;;;;;;2.44;100.00;100774.03;273018;1267;22227;-90
2023/02/14 03:39:36;;;;;;;74.30;39.90;;;;;;;2.45;100.00;100783.11;273423;1267;22189;-91
2023/02/14 03:45:43;;;;;;;73.00;37.50;;;;;;;2.46;100.00;100787.27;273376;1267;22552;-91
2023/02/14 03:51:48;;;;;;;75.50;40.30;;;;;;;2.45;100.00;100781.27;272262;1267;22954;-91
2023/02/14 03:58:07;;;;;;;71.10;37.10;;;;;;;2.44;100.00;100782.09;272233;1265;22557;-90
2023/02/14 04:04:11;;;;;;;84.60;42.70;;;;;;;2.44;100.00;100785.98;272123;1267;22352;-90
2023/02/14 04:10:13;;;;;;;73.50;37.40;;;;;;;2.44;100.00;100785.49;270868;1267;23072;-91
2023/02/14 04:16:15;;;;;;;71.50;38.00;;;;;;;2.43;100.00;100784.25;273201;1267;22317;-90
2023/02/14 04:22:18;;;;;;;76.40;40.40;;;;;;;2.41;100.00;100788.63;273149;1271;22520;-91
2023/02/14 04:28:19;;;;;;;78.20;37.00;;;;;;;2.41;100.00;100793.07;272947;1267;22990;-90
2023/02/14 04:34:21;;;;;;;71.30;36.30;;;;;;;2.41;100.00;100794.04;273816;1269;23237;-90
2023/02/14 04:40:23;;;;;;;73.80;37.60;;;;;;;2.41;100.00;100799.88;273490;1267;22370;-90
2023/02/14 04:46:26;;;;;;;76.80;39.10;;;;;;;2.42;100.00;100801.39;273012;1267;22325;-90
2023/02/14 04:52:27;;;;;;;69.40;37.50;;;;;;;2.41;100.00;100806.20;273434;1269;23556;-90
2023/02/14 04:58:29;;;;;;;72.30;37.40;;;;;;;2.39;100.00;100807.58;273763;1267;22395;-90
2023/02/14 05:04:31;;;;;;;76.00;39.90;;;;;;;2.40;100.00;100804.80;273709;1269;22293;-90
2023/02/14 05:10:34;;;;;;;76.20;38.40;;;;;;;2.41;100.00;100805.93;273862;1269;22379;-90
2023/02/14 05:16:37;;;;;;;82.20;38.60;;;;;;;2.43;100.00;100804.95;273834;1269;22338;-90
2023/02/14 05:22:39;;;;;;;83.50;40.20;;;;;;;2.43;100.00;100802.84;273656;1266;23319;-90
2023/02/14 05:28:41;;;;;;;66.90;32.40;;;;;;;2.44;100.00;100804.52;272910;1269;22364;-89
2023/02/14 05:34:46;;;;;;;70.40;34.70;;;;;;;2.45;100.00;100800.73;273760;1269;22400;-89
2023/02/14 05:40:48;;;;;;;66.60;35.80;;;;;;;2.48;100.00;100798.28;273607;1267;22392;-91
2023/02/14 05:46:50;;;;;;;73.80;36.90;;;;;;;2.49;100.00;100801.67;271519;1267;25332;-90
2023/02/14 05:52:52;;;;;;;66.80;34.60;;;;;;;2.51;100.00;100810.70;273578;1267;23668;-89
2023/02/14 05:58:54;;;;;;;71.20;34.20;;;;;;;2.52;100.00;100815.83;271477;1267;22541;-90
2023/02/14 06:04:56;;;;;;;62.70;33.50;;;;;;;2.52;100.00;100816.58;270254;1269;22533;-90
2023/02/14 06:10:58;;;;;;;73.40;33.60;;;;;;;2.52;100.00;100819.72;269529;1267;23917;-90
2023/02/14 06:17:00;;;;;;;61.60;30.80;;;;;;;2.52;100.00;100821.68;269830;1267;22539;-90
2023/02/14 06:23:02;;;;;;;56.60;28.40;;;;;;;2.52;100.00;100826.70;269720;1267;25479;-91
2023/02/14 06:29:04;;;;;;;55.60;27.50;;;;;;;2.52;100.00;100834.81;270054;1267;25258;-90
2023/02/14 06:35:06;;;;;;;54.10;29.20;;;;;;;2.51;100.00;100833.84;269765;1266;22582;-90
2023/02/14 06:41:09;;;;;;;54.80;30.00;;;;;;;2.52;100.00;100829.46;270153;1266;22527;-90
2023/02/14 06:47:11;;;;;;;60.20;30.00;;;;;;;2.54;100.00;100825.70;273441;1259;22341;-91
2023/02/14 06:53:13;;;;;;;60.00;28.90;;;;;;;2.58;100.00;100821.74;273094;1267;22931;-90
2023/02/14 06:59:15;;;;;;;54.30;27.30;;;;;;;2.64;100.00;100818.41;273711;1267;22293;-90
2023/02/14 07:05:19;;;;;;;59.90;30.30;;;;;;;2.69;100.00;100822.77;273341;1269;23319;-90
2023/02/14 07:11:23;;;;;;;51.10;26.90;;;;;;;2.74;100.00;100832.27;273530;1267;22328;-90
2023/02/14 07:17:25;;;;;;;53.10;27.30;;;;;;;2.77;100.00;100835.83;273497;1269;22426;-90
2023/02/14 07:23:27;;;;;;;46.60;25.50;;;;;;;2.77;100.00;100837.10;272486;1266;22422;-89
2023/02/14 07:29:29;;;;;;;56.20;28.90;;;;;;;2.81;100.00;100840.50;271936;1268;23221;-90
2023/02/14 07:35:34;;;;;;;57.10;31.20;;;;;;;2.85;100.00;100844.38;273225;1269;23532;-89
2023/02/14 07:41:39;;;;;;;67.60;33.50;;;;;;;2.92;100.00;100850.83;270349;1269;22724;-89
2023/02/14 07:47:48;;;;;;;56.50;31.30;;;;;;;2.98;100.00;100851.33;271195;1270;22557;-90
2023/02/14 07:53:51;;;;;;;61.70;31.60;;;;;;;3.04;100.00;100854.04;270625;1260;22531;-90
2023/02/14 07:59:53;;;;;;;55.70;31.90;;;;;;;3.11;100.00;100855.83;270760;1267;22644;-90
2023/02/14 08:05:58;;;;;;;59.50;33.00;;;;;;;3.16;100.00;100852.27;271079;1269;22918;-90
2023/02/14 08:18:27;;;;;;;55.00;32.40;;;;;;;3.27;100.00;100852.86;273405;1267;23410;-91
2023/02/14 08:24:34;;;;;;;57.80;32.40;;;;;;;3.32;100.00;100857.09;273405;1267;22323;-91
2023/02/14 08:30:38;;;;;;;58.20;30.30;;;;;;;3.38;100.00;100860.95;273652;1270;22206;-90
2023/02/14 08:36:46;;;;;;;63.20;32.40;;;;;;;3.46;100.00;100859.48;271646;1267;22390;-90
2023/02/14 08:42:48;;;;;;;58.20;30.90;;;;;;;3.59;100.00;100864.14;272248;1267;22237;-90
2023/02/14 08:48:53;;;;;;;77.80;36.80;;;;;;;3.71;100.00;100870.30;273284;1269;22352;-90
2023/02/14 08:54:55;;;;;;;65.20;34.10;;;;;;;3.82;100.00;100870.15;271859;1267;22569;-89
2023/02/14 09:01:00;;;;;;;58.30;32.40;;;;;;;3.93;100.00;100866.85;272922;1268;22567;-90
2023/02/14 09:07:11;;;;;;;62.00;30.80;;;;;;;4.04;100.00;100869.23;273593;1268;22350;-89
2023/02/14 09:13:14;;;;;;;63.40;32.10;;;;;;;4.12;100.00;100874.95;272914;1269;22339;-90
2023/02/14 09:19:27;;;;;;;57.90;31.50;;;;;;;4.13;100.00;100883.34;272207;1269;22985;-90
2023/02/14 09:25:31;;;;;;;65.90;33.80;;;;;;;4.16;100.00;100892.08;273262;1270;191187;-91
2023/02/14 09:31:36;;;;;;;65.80;35.10;;;;;;;4.22;100.00;100893.17;273427;1269;22391;-87
2023/02/14 09:37:38;;;;;;;55.40;28.00;;;;;;;4.27;100.00;100895.99;272371;1267;22353;-90
2023/02/14 09:43:52;;;;;;;59.00;30.10;;;;;;;4.32;100.00;100900.33;271374;1267;22565;-91
2023/02/14 09:49:58;;;;;;;62.60;30.60;;;;;;;4.37;100.00;100900.21;271892;1270;22562;-89
2023/02/14 09:56:21;;;;;;;53.20;27.30;;;;;;;4.49;100.00;100900.40;272609;1269;22963;-89
2023/02/14 10:02:48;;;;;;;51.90;26.70;;;;;;;4.58;100.00;100904.41;273356;1267;22293;-89
2023/02/14 10:08:54;;;;;;;;;;;;;;;4.70;100.00;100903.09;273486;1267;22464;-90
2023/02/14 10:15:09;;;;;;;51.70;27.20;;;;;;;4.80;100.00;100899.86;272250;1270;22563;-90
2023/02/14 10:21:23;;;;;;;48.10;25.00;;;;;;;4.86;100.00;100896.04;272128;1269;23842;-90
2023/02/14 10:27:49;;;;;;;41.30;23.70;;;;;;;4.89;100.00;100886.39;273135;1257;23272;-90
2023/02/14 10:33:58;;;;;;;45.00;23.80;;;;;;;4.90;100.00;100890.08;271531;1267;23379;-91
2023/02/14 10:40:25;;;;;;;48.40;25.10;;;;;;;4.93;100.00;100885.52;274011;1270;22217;-91
2023/02/14 10:46:43;;;;;;;;;;;;;;;4.90;100.00;100884.55;273101;1268;23237;-90
2023/02/14 10:53:11;;;;;;;46.00;24.60;;;;;;;4.90;100.00;100880.79;271262;1267;24362;-90
2023/02/14 10:59:31;;;;;;;41.60;22.10;;;;;;;4.96;100.00;100878.05;272054;1267;23143;-89
2023/02/14 11:05:47;;;;;;;43.60;22.10;;;;;;;5.00;100.00;100872.34;271277;1272;22561;-90
2023/02/14 11:11:55;;;;;;;52.50;26.10;;;;;;;5.02;100.00;100870.27;271811;1270;22985;-90
2023/02/14 11:18:08;;;;;;;;;;;;;;;4.99;100.00;100868.35;272482;1270;23169;-90
2023/02/14 11:24:40;;;;;;;41.00;21.30;;;;;;;4.87;100.00;100857.27;272152;1269;23113;-90
2023/02/14 11:30:44;;;;;;;36.30;21.90;;;;;;;4.81;100.00;100857.57;272815;1269;22581;-91
2023/02/14 11:36:49;;;;;;;39.60;22.90;;;;;;;4.84;100.00;100852.36;273386;1270;23096;-91
2023/02/14 11:42:51;;;;;;;40.90;22.70;;;;;;;4.85;100.00;100847.48;273380;1269;22204;-90
2023/02/14 11:48:59;;;;;;;40.10;22.50;;;;;;;4.80;100.00;100841.67;273029;1268;22407;-92
2023/02/14 11:55:01;;;;;;;40.10;22.50;;;;;;;4.79;100.00;100836.00;271351;1270;22639;-90
2023/02/14 12:01:10;;;;;;;44.50;21.70;;;;;;;4.83;100.00;100837.30;273321;1269;22225;-90
2023/02/14 12:07:17;;;;;;;41.40;22.80;;;;;;;4.88;100.00;100833.97;271886;1269;22273;-91
2023/02/14 12:13:26;;;;;;;42.20;23.20;;;;;;;4.99;100.00;100827.52;271869;1270;25243;-90
2023/02/14 12:19:50;;;;;;;37.50;19.40;;;;;;;5.06;100.00;100821.02;270639;1269;22382;-90
2023/02/14 12:26:00;;;;;;;40.30;20.60;;;;;;;5.09;100.00;100821.17;271185;1269;23383;-89
2023/02/14 12:32:31;;;;;;;40.10;21.90;;;;;;;5.08;100.00;100812.80;271033;1269;23283;-90
2023/02/14 12:38:55;;;;;;;39.70;21.20;;;;;;;5.10;100.00;100806.89;270727;1264;22531;-91
2023/02/14 12:45:07;;;;;;;33.60;19.70;;;;;;;5.11;100.00;100801.83;272713;1272;22211;-90
2023/02/14 12:51:29;;;;;;;27.90;16.50;;;;;;;5.06;100.00;100798.00;272782;1270;22743;-92
2023/02/14 12:57:38;;;;;;;32.20;17.60;;;;;;;5.00;100.00;100789.56;271943;1270;22539;-91
2023/02/14 13:04:13;;;;;;;30.00;17.70;;;;;;;4.97;100.00;100782.89;270008;1270;22547;-90
2023/02/14 13:11:09;;;;;;;36.10;19.90;;;;;;;5.01;100.00;100776.36;270642;1270;24202;-90
2023/02/14 13:17:35;;;;;;;31.70;17.30;;;;;;;5.08;100.00;100775.48;270793;1269;22544;-90
2023/02/14 13:23:40;;;;;;;28.50;17.10;;;;;;;5.11;100.00;100773.05;270842;1272;22561;-91
2023/02/14 13:29:48;;;;;;;24.50;15.30;;;;;;;5.11;100.00;100772.40;272578;1270;24212;-91
2023/02/14 13:35:53;;;;;;;33.10;18.70;;;;;;;5.13;100.00;100772.64;270598;1272;22573;-90
2023/02/14 13:41:55;;;;;;;31.20;16.20;;;;;;;5.18;100.00;100774.24;271434;1269;22868;-91
2023/02/14 13:48:11;;;;;;;33.90;16.40;;;;;;;5.16;100.00;100771.63;273188;1270;22333;-90
2023/02/14 13:54:34;;;;;;;27.90;15.70;;;;;;;5.13;100.00;100770.23;270128;1264;22344;-90
2023/02/14 14:00:39;;;;;;;27.40;14.30;;;;;;;5.18;100.00;100770.27;273339;1270;22529;-90
2023/02/14 14:07:04;;;;;;;24.20;13.90;;;;;;;5.19;100.00;100761.08;271921;1270;24340;-90
2023/02/14 14:13:06;;;;;;;28.20;15.20;;;;;;;5.19;100.00;100753.09;272223;1269;22602;-90
2023/02/14 14:19:08;;;;;;;27.80;15.60;;;;;;;5.18;100.00;100755.56;272474;1269;22337;-89
2023/02/14 14:25:10;;;;;;;27.90;15.40;;;;;;;5.10;100.00;100763.84;273560;1269;22571;-90
2023/02/14 14:31:12;;;;;;;36.70;20.50;;;;;;;4.99;100.00;100765.80;272649;1269;22532;-91
2023/02/14 14:37:32;;;;;;;33.10;19.70;;;;;;;4.96;100.00;100764.55;272864;1269;23527;-90
2023/02/14 14:43:35;;;;;;;30.90;16.80;;;;;;;4.93;100.00;100763.56;273542;1270;22322;-92
2023/02/14 14:49:37;;;;;;;28.60;16.20;;;;;;;4.87;100.00;100767.77;272546;1271;23339;-90
2023/02/14 14:55:44;;;;;;;27.00;16.20;;;;;;;4.80;100.00;100767.29;271805;1270;22324;-90
2023/02/14 15:01:46;;;;;;;26.90;16.50;;;;;;;4.76;100.00;100771.69;272572;1270;22530;-90
2023/02/14 15:07:48;;;;;;;30.50;16.40;;;;;;;4.74;100.00;100764.72;272991;1269;22572;-90
2023/02/14 15:13:52;;;;;;;28.70;16.80;;;;;;;4.71;100.00;100766.49;271148;1269;23762;-89
2023/02/14 15:20:08;;;;;;;26.60;16.50;;;;;;;4.68;100.00;100765.67;269801;1270;25495;-89
2023/02/14 15:26:40;;;;;;;30.60;16.10;;;;;;;4.61;100.00;100765.17;271117;1269;23525;-90
2023/02/14 15:32:42;;;;;;;27.00;16.40;;;;;;;4.54;100.00;100769.19;273631;1269;23022;-90
2023/02/14 15:38:45;;;;;;;30.10;19.10;;;;;;;4.47;100.00;100775.95;273141;1269;22543;-91
2023/02/14 15:44:53;;;;;;;30.70;18.00;;;;;;;4.40;100.00;100783.52;273245;1269;22349;-91
2023/02/14 15:50:57;;;;;;;31.70;18.50;;;;;;;4.35;100.00;100787.34;273492;1269;23231;-91
2023/02/14 15:57:04;;;;;;;29.00;18.70;;;;;;;4.31;100.00;100789.55;272493;1270;22223;-91
2023/02/14 16:03:14;;;;;;;26.10;16.20;;;;;;;4.27;100.00;100795.09;272923;1268;22340;-90
2023/02/14 16:09:26;;;;;;;31.50;18.60;;;;;;;4.21;100.00;100802.20;273248;1269;22292;-91
2023/02/14 16:15:30;;;;;;;32.90;19.20;;;;;;;4.19;100.00;100809.61;272703;1267;23056;-89
2023/02/14 16:21:33;;;;;;;34.90;19.40;;;;;;;4.16;100.00;100809.86;271974;1270;22220;-89
2023/02/14 16:27:35;;;;;;;41.40;23.80;;;;;;;4.13;100.00;100813.69;273179;1269;22307;-90
2023/02/14 16:33:40;;;;;;;39.70;23.20;;;;;;;4.10;100.00;100815.68;273228;1269;22327;-89
2023/02/14 16:39:58;;;;;;;42.80;24.90;;;;;;;4.06;100.00;100817.55;273423;1269;22340;-91
2023/02/14 16:46:26;;;;;;;41.90;24.00;;;;;;;4.05;100.00;100824.45;273220;1270;22197;-90
2023/02/14 16:52:28;;;;;;;47.30;26.40;;;;;;;4.03;100.00;100821.70;273269;1269;22253;-90
2023/02/14 16:58:33;;;;;;;48.40;29.30;;;;;;;4.00;100.00;100818.39;273378;1269;23524;-90
2023/02/14 17:04:35;;;;;;;46.90;28.40;;;;;;;3.98;100.00;100824.38;273307;1269;22471;-90
2023/02/14 17:10:41;;;;;;;52.60;29.80;;;;;;;3.95;100.00;100824.56;273491;1270;22212;-90
2023/02/14 17:16:46;;;;;;;57.40;29.50;;;;;;;3.91;100.00;100823.58;273289;1270;22211;-90
2023/02/14 17:22:48;;;;;;;55.30;29.40;;;;;;;3.89;100.00;100827.34;273306;1269;22406;-90
2023/02/14 17:28:50;;;;;;;55.30;28.90;;;;;;;3.87;100.00;100825.19;273298;1270;22204;-90
2023/02/14 17:34:53;;;;;;;55.70;30.00;;;;;;;3.85;100.00;100827.11;273270;1269;22316;-91
2023/02/14 17:40:55;;;;;;;57.20;29.90;;;;;;;3.84;100.00;100830.04;273116;1270;23155;-90
2023/02/14 17:47:23;;;;;;;56.20;32.00;;;;;;;3.82;100.00;100831.09;272313;1269;22607;-91
2023/02/14 17:53:32;;;;;;;57.60;31.10;;;;;;;3.79;100.00;100833.30;272950;1269;22317;-90
2023/02/14 17:59:38;;;;;;;58.80;34.10;;;;;;;3.76;100.00;100835.06;273091;1271;22576;-89
2023/02/14 18:05:40;;;;;;;60.30;33.20;;;;;;;3.74;100.00;100833.93;271663;1270;22423;-90
2023/02/14 18:11:43;;;;;;;64.60;35.20;;;;;;;3.73;100.00;100837.63;271672;1270;23364;-90
2023/02/14 18:17:50;;;;;;;66.80;37.00;;;;;;;3.71;100.00;100839.20;272658;1269;23036;-90
2023/02/14 18:23:52;;;;;;;73.80;36.60;;;;;;;3.69;100.00;100838.14;271486;1269;22579;-90
2023/02/14 18:29:54;;;;;;;72.20;39.70;;;;;;;3.67;100.00;100835.40;271342;1269;25358;-89
2023/02/14 18:36:01;;;;;;;78.90;40.50;;;;;;;3.64;100.00;100832.06;271971;1269;23391;-90
2023/02/14 18:42:04;;;;;;;75.00;41.40;;;;;;;3.63;100.00;100828.07;271423;1254;22659;-89
2023/02/14 18:48:08;;;;;;;84.00;43.10;;;;;;;3.63;100.00;100828.45;273541;1267;23038;-89
2023/02/14 18:54:10;;;;;;;79.60;44.40;;;;;;;3.62;100.00;100821.92;273671;1259;22193;-89
2023/02/14 19:00:13;;;;;;;86.20;47.30;;;;;;;3.58;100.00;100821.95;273710;1269;22849;-89
2023/02/14 19:06:15;;;;;;;87.90;47.70;;;;;;;3.55;100.00;100814.94;273528;1269;22219;-89
2023/02/14 19:12:17;;;;;;;90.70;50.60;;;;;;;3.54;100.00;100818.69;273607;1259;23664;-89
2023/02/14 19:18:19;;;;;;;94.90;51.20;;;;;;;3.52;100.00;100817.19;273618;1269;22884;-90
2023/02/14 19:24:24;;;;;;;98.20;50.60;;;;;;;3.51;100.00;100817.52;273633;1269;23128;-90
2023/02/14 19:30:26;;;;;;;96.30;51.20;;;;;;;3.51;100.00;100820.81;273671;1269;22491;-89
2023/02/14 19:36:29;;;;;;;101.60;50.40;;;;;;;3.49;100.00;100818.61;273460;1269;22349;-88
2023/02/14 19:42:31;;;;;;;109.90;54.20;;;;;;;3.42;100.00;100821.21;273505;1269;23770;-89
2023/02/14 19:48:33;;;;;;;95.20;50.50;;;;;;;3.39;100.00;100818.83;273592;1269;23249;-89
2023/02/14 19:54:39;;;;;;;99.40;51.40;;;;;;;3.41;100.00;100816.90;272700;1269;23635;-87
2023/02/14 20:00:41;;;;;;;102.00;50.30;;;;;;;3.40;100.00;100817.45;273307;1269;22521;-90
2023/02/14 20:06:47;;;;;;;96.10;50.90;;;;;;;3.38;100.00;100819.32;270181;1269;25386;-89
2023/02/14 20:12:49;;;;;;;103.20;51.90;;;;;;;3.34;100.00;100816.64;270899;1269;23011;-90
2023/02/14 20:18:52;;;;;;;100.60;52.60;;;;;;;3.27;100.00;100823.35;271980;1269;23130;-89
2023/02/14 20:24:57;;;;;;;112.50;56.10;;;;;;;3.29;100.00;100822.36;273497;1269;23036;-89
2023/02/14 20:30:59;;;;;;;106.50;53.30;;;;;;;3.29;100.00;100817.44;270174;1270;22526;-90
2023/02/14 20:37:01;;;;;;;94.90;46.60;;;;;;;3.28;100.00;100814.46;272517;1269;22341;-89
2023/02/14 20:43:03;;;;;;;92.80;47.70;;;;;;;3.22;100.00;100815.81;273594;1269;22196;-89
2023/02/14 20:49:21;;;;;;;94.10;46.50;;;;;;;3.21;100.00;100817.98;273185;1269;22083;-90
2023/02/14 20:55:25;;;;;;;88.00;45.40;;;;;;;3.19;100.00;100813.39;273304;1269;22393;-89
2023/02/14 21:01:30;;;;;;;89.90;47.70;;;;;;;3.16;100.00;100808.89;273393;1269;23098;-90
2023/02/14 21:07:32;;;;;;;93.80;47.80;;;;;;;3.15;100.00;100808.07;272260;1269;22501;-88
2023/02/14 21:13:35;;;;;;;97.90;47.70;;;;;;;3.12;100.00;100808.36;270647;1266;24035;-89
2023/02/14 21:19:37;;;;;;;88.40;45.50;;;;;;;3.11;100.00;100804.92;270966;1261;22559;-89
2023/02/14 21:25:39;;;;;;;90.10;47.70;;;;;;;3.09;100.00;100801.90;270801;1270;166153;-89
2023/02/14 21:31:41;;;;;;;94.90;49.00;;;;;;;3.06;100.00;100798.08;270527;1269;22247;-89
2023/02/14 21:37:43;;;;;;;117.30;57.20;;;;;;;3.03;100.00;100803.84;270006;1269;22381;-89
2023/02/14 21:43:47;;;;;;;110.70;58.50;;;;;;;3.02;100.00;100803.67;269731;1268;23860;-88
2023/02/14 21:56:13;;;;;;;119.10;60.00;;;;;;;2.96;100.00;100799.98;271776;1262;22342;-90
2023/02/14 22:02:15;;;;;;;114.10;59.20;;;;;;;2.94;100.00;100797.23;271813;1269;25272;-90
2023/02/14 22:08:17;;;;;;;133.50;67.40;;;;;;;2.91;100.00;100790.39;270651;1269;22629;-90
2023/02/14 22:14:19;;;;;;;131.90;68.70;;;;;;;2.91;100.00;100790.02;270613;1269;22540;-90
2023/02/14 22:20:21;;;;;;;119.00;62.30;;;;;;;2.88;100.00;100791.44;270985;1269;22532;-89
2023/02/14 22:26:26;;;;;;;129.90;67.40;;;;;;;2.86;100.00;100789.18;272541;1269;22348;-88
2023/02/14 22:32:28;;;;;;;124.10;63.20;;;;;;;2.84;100.00;100781.41;273439;1269;22294;-90
2023/02/14 22:38:30;;;;;;;132.30;67.00;;;;;;;2.80;100.00;100775.20;273752;1269;23532;-89
2023/02/14 22:44:32;;;;;;;120.30;61.30;;;;;;;2.77;100.00;100773.13;273433;1269;22243;-89
2023/02/14 22:50:35;;;;;;;126.50;64.90;;;;;;;2.73;100.00;100775.27;273606;1270;22407;-90
2023/02/14 22:56:43;;;;;;;128.00;66.80;;;;;;;2.72;100.00;100770.73;272971;1269;22347;-89
2023/02/14 23:02:45;;;;;;;120.30;64.40;;;;;;;2.68;100.00;100770.27;270342;1269;24208;-90
2023/02/14 23:08:47;;;;;;;136.20;68.40;;;;;;;2.61;100.00;100765.33;271766;1253;22270;-88
2023/02/14 23:27:35;;;;;;;148.00;74.20;;;;;;;2.50;100.00;100758.80;272141;1269;23150;-89
2023/02/14 23:33:37;;;;;;;137.90;69.40;;;;;;;2.46;100.00;100752.52;273582;1268;22472;-88
2023/02/14 23:39:39;;;;;;;139.50;69.50;;;;;;;2.43;100.00;100754.46;273484;1269;22432;-89
2023/02/14 23:45:41;;;;;;;166.20;80.10;;;;;;;2.45;100.00;100752.73;273099;1270;25255;-89
2023/02/14 23:51:44;;;;;;;148.80;75.90;;;;;;;2.48;100.00;100747.63;273020;1269;22349;-89
2023/02/14 23:57:46;;;;;;;139.70;68.80;;;;;;;2.48;100.00;100735.08;273729;1266;22374;-89
